sensor_id;sensor_type;location;lat;lon;timestamp;P1;durP1;ratioP1;P2;durP2;ratioP2
71048;SDS011;58704;53.358;-6.238;2024-03-22T00:02:06;31.35;;;4.70;;
71048;SDS011;58704;53.358;-6.238;2024-03-22T00:04:31;33.57;;;5.87;;
71048;SDS011;58704;53.358;-6.238;2024-03-22T00:06:56;41.90;;;4.97;;
71048;SDS011;58704;53.358;-6.238;2024-03-22T00:09:22;33.50;;;4.63;;
71048;SDS011;58704;53.358;-6.238;2024-03-22T00:11:47;28.77;;;4.40;;
71048;SDS011;58704;53.358;-6.238;2024-03-22T00:14:12;33.27;;;5.57;;
71048;SDS011;58704;53.358;-6.238;2024-03-22T00:16:38;38.33;;;7.30;;
71048;SDS011;58704;53.358;-6.238;2024-03-22T00:19:03;35.07;;;5.27;;
71048;SDS011;58704;53.358;-6.238;2024-03-22T00:21:29;27.87;;;4.83;;
71048;SDS011;58704;53.358;-6.238;2024-03-22T00:23:54;29.87;;;5.27;;
71048;SDS011;58704;53.358;-6.238;2024-03-22T00:26:20;31.88;;;5.72;;
71048;SDS011;58704;53.358;-6.238;2024-03-22T00:28:45;33.80;;;4.77;;
71048;SDS011;58704;53.358;-6.238;2024-03-22T00:31:10;36.50;;;5.47;;
71048;SDS011;58704;53.358;-6.238;2024-03-22T00:33:36;30.83;;;4.93;;
71048;SDS011;58704;53.358;-6.238;2024-03-22T00:36:01;29.73;;;4.93;;
71048;SDS011;58704;53.358;-6.238;2024-03-22T00:38:26;34.43;;;5.07;;
71048;SDS011;58704;53.358;-6.238;2024-03-22T00:40:52;35.60;;;5.07;;
71048;SDS011;58704;53.358;-6.238;2024-03-22T00:43:17;34.77;;;4.87;;
71048;SDS011;58704;53.358;-6.238;2024-03-22T00:45:42;39.73;;;5.97;;
71048;SDS011;58704;53.358;-6.238;2024-03-22T00:48:07;36.47;;;5.80;;
71048;SDS011;58704;53.358;-6.238;2024-03-22T00:50:33;30.87;;;5.00;;
71048;SDS011;58704;53.358;-6.238;2024-03-22T00:52:58;46.90;;;5.43;;
71048;SDS011;58704;53.358;-6.238;2024-03-22T00:55:23;36.50;;;5.83;;
71048;SDS011;58704;53.358;-6.238;2024-03-22T00:57:49;41.30;;;5.83;;
71048;SDS011;58704;53.358;-6.238;2024-03-22T01:00:14;33.93;;;4.63;;
71048;SDS011;58704;53.358;-6.238;2024-03-22T01:02:40;47.47;;;5.43;;
71048;SDS011;58704;53.358;-6.238;2024-03-22T01:05:06;36.63;;;6.03;;
71048;SDS011;58704;53.358;-6.238;2024-03-22T01:07:31;32.90;;;4.07;;
71048;SDS011;58704;53.358;-6.238;2024-03-22T01:09:56;44.70;;;5.97;;
71048;SDS011;58704;53.358;-6.238;2024-03-22T01:12:21;38.50;;;5.70;;
71048;SDS011;58704;53.358;-6.238;2024-03-22T01:14:47;31.00;;;5.17;;
71048;SDS011;58704;53.358;-6.238;2024-03-22T01:17:12;42.37;;;6.13;;
71048;SDS011;58704;53.358;-6.238;2024-03-22T01:19:37;39.97;;;5.13;;
71048;SDS011;58704;53.358;-6.238;2024-03-22T01:22:02;45.93;;;5.97;;
71048;SDS011;58704;53.358;-6.238;2024-03-22T01:24:28;35.93;;;5.23;;
71048;SDS011;58704;53.358;-6.238;2024-03-22T01:26:53;34.00;;;5.63;;
71048;SDS011;58704;53.358;-6.238;2024-03-22T01:29:18;37.00;;;4.95;;
71048;SDS011;58704;53.358;-6.238;2024-03-22T01:31:44;31.40;;;5.33;;
71048;SDS011;58704;53.358;-6.238;2024-03-22T01:34:09;36.17;;;5.97;;
71048;SDS011;58704;53.358;-6.238;2024-03-22T01:36:34;38.00;;;4.87;;
71048;SDS011;58704;53.358;-6.238;2024-03-22T01:38:59;24.03;;;4.50;;
71048;SDS011;58704;53.358;-6.238;2024-03-22T01:41:25;37.63;;;5.13;;
71048;SDS011;58704;53.358;-6.238;2024-03-22T01:43:50;44.10;;;6.47;;
71048;SDS011;58704;53.358;-6.238;2024-03-22T01:46:15;32.53;;;5.23;;
71048;SDS011;58704;53.358;-6.238;2024-03-22T01:48:41;35.60;;;4.63;;
71048;SDS011;58704;53.358;-6.238;2024-03-22T01:51:06;37.50;;;5.77;;
71048;SDS011;58704;53.358;-6.238;2024-03-22T01:53:32;39.83;;;6.07;;
71048;SDS011;58704;53.358;-6.238;2024-03-22T01:55:57;43.37;;;5.50;;
71048;SDS011;58704;53.358;-6.238;2024-03-22T01:58:23;33.17;;;4.87;;
71048;SDS011;58704;53.358;-6.238;2024-03-22T02:00:48;36.20;;;5.20;;
71048;SDS011;58704;53.358;-6.238;2024-03-22T02:03:14;32.55;;;5.38;;
71048;SDS011;58704;53.358;-6.238;2024-03-22T02:05:39;32.33;;;4.97;;
71048;SDS011;58704;53.358;-6.238;2024-03-22T02:08:04;36.50;;;5.57;;
71048;SDS011;58704;53.358;-6.238;2024-03-22T02:10:30;37.10;;;6.47;;
71048;SDS011;58704;53.358;-6.238;2024-03-22T02:12:55;47.45;;;5.85;;
71048;SDS011;58704;53.358;-6.238;2024-03-22T02:15:21;36.53;;;5.70;;
71048;SDS011;58704;53.358;-6.238;2024-03-22T02:17:46;41.27;;;5.93;;
71048;SDS011;58704;53.358;-6.238;2024-03-22T02:20:11;38.20;;;5.87;;
71048;SDS011;58704;53.358;-6.238;2024-03-22T02:22:37;35.30;;;5.33;;
71048;SDS011;58704;53.358;-6.238;2024-03-22T02:25:03;38.53;;;6.03;;
71048;SDS011;58704;53.358;-6.238;2024-03-22T02:27:28;32.50;;;4.93;;
71048;SDS011;58704;53.358;-6.238;2024-03-22T02:29:53;44.30;;;6.57;;
71048;SDS011;58704;53.358;-6.238;2024-03-22T02:32:19;30.60;;;4.63;;
71048;SDS011;58704;53.358;-6.238;2024-03-22T02:34:44;51.20;;;6.77;;
71048;SDS011;58704;53.358;-6.238;2024-03-22T02:37:09;38.63;;;5.70;;
71048;SDS011;58704;53.358;-6.238;2024-03-22T02:39:35;37.43;;;5.13;;
71048;SDS011;58704;53.358;-6.238;2024-03-22T02:42:00;27.33;;;4.43;;
71048;SDS011;58704;53.358;-6.238;2024-03-22T02:44:25;35.40;;;6.20;;
71048;SDS011;58704;53.358;-6.238;2024-03-22T02:46:50;35.10;;;6.07;;
71048;SDS011;58704;53.358;-6.238;2024-03-22T02:49:16;32.80;;;4.70;;
71048;SDS011;58704;53.358;-6.238;2024-03-22T02:51:41;39.43;;;5.77;;
71048;SDS011;58704;53.358;-6.238;2024-03-22T02:54:06;40.10;;;5.00;;
71048;SDS011;58704;53.358;-6.238;2024-03-22T02:56:31;36.40;;;5.33;;
71048;SDS011;58704;53.358;-6.238;2024-03-22T02:58:57;49.87;;;6.10;;
71048;SDS011;58704;53.358;-6.238;2024-03-22T03:01:22;43.63;;;5.83;;
71048;SDS011;58704;53.358;-6.238;2024-03-22T03:03:47;34.60;;;4.60;;
71048;SDS011;58704;53.358;-6.238;2024-03-22T03:06:12;37.27;;;4.17;;
71048;SDS011;58704;53.358;-6.238;2024-03-22T03:08:42;41.65;;;5.03;;
71048;SDS011;58704;53.358;-6.238;2024-03-22T03:11:07;31.70;;;4.70;;
71048;SDS011;58704;53.358;-6.238;2024-03-22T03:13:32;44.47;;;5.83;;
71048;SDS011;58704;53.358;-6.238;2024-03-22T03:15:58;41.13;;;5.13;;
71048;SDS011;58704;53.358;-6.238;2024-03-22T03:18:23;32.10;;;4.80;;
71048;SDS011;58704;53.358;-6.238;2024-03-22T03:20:48;43.17;;;6.30;;
71048;SDS011;58704;53.358;-6.238;2024-03-22T03:23:13;41.70;;;4.80;;
71048;SDS011;58704;53.358;-6.238;2024-03-22T03:25:39;35.17;;;5.13;;
71048;SDS011;58704;53.358;-6.238;2024-03-22T03:28:04;33.37;;;5.40;;
71048;SDS011;58704;53.358;-6.238;2024-03-22T03:30:29;33.43;;;4.90;;
71048;SDS011;58704;53.358;-6.238;2024-03-22T03:32:55;27.30;;;4.80;;
71048;SDS011;58704;53.358;-6.238;2024-03-22T03:35:20;37.17;;;4.70;;
71048;SDS011;58704;53.358;-6.238;2024-03-22T03:37:45;36.37;;;5.00;;
71048;SDS011;58704;53.358;-6.238;2024-03-22T03:40:11;35.70;;;4.43;;
71048;SDS011;58704;53.358;-6.238;2024-03-22T03:42:36;42.08;;;4.38;;
71048;SDS011;58704;53.358;-6.238;2024-03-22T03:45:01;29.80;;;3.57;;
71048;SDS011;58704;53.358;-6.238;2024-03-22T03:47:26;31.73;;;4.50;;
71048;SDS011;58704;53.358;-6.238;2024-03-22T03:49:52;26.47;;;3.73;;
71048;SDS011;58704;53.358;-6.238;2024-03-22T03:52:17;31.90;;;3.60;;
71048;SDS011;58704;53.358;-6.238;2024-03-22T03:54:43;32.93;;;4.47;;
71048;SDS011;58704;53.358;-6.238;2024-03-22T03:57:08;26.03;;;3.57;;
71048;SDS011;58704;53.358;-6.238;2024-03-22T03:59:33;28.77;;;4.23;;
71048;SDS011;58704;53.358;-6.238;2024-03-22T04:01:58;28.80;;;3.70;;
71048;SDS011;58704;53.358;-6.238;2024-03-22T04:04:24;23.73;;;3.77;;
71048;SDS011;58704;53.358;-6.238;2024-03-22T04:06:49;30.10;;;3.87;;
71048;SDS011;58704;53.358;-6.238;2024-03-22T04:09:14;36.37;;;4.17;;
71048;SDS011;58704;53.358;-6.238;2024-03-22T04:11:39;33.10;;;4.53;;
71048;SDS011;58704;53.358;-6.238;2024-03-22T04:14:05;28.33;;;3.97;;
71048;SDS011;58704;53.358;-6.238;2024-03-22T04:16:30;28.43;;;4.30;;
71048;SDS011;58704;53.358;-6.238;2024-03-22T04:18:56;42.60;;;5.27;;
71048;SDS011;58704;53.358;-6.238;2024-03-22T04:21:21;33.03;;;4.37;;
71048;SDS011;58704;53.358;-6.238;2024-03-22T04:23:47;27.90;;;3.57;;
71048;SDS011;58704;53.358;-6.238;2024-03-22T04:26:12;28.33;;;3.97;;
71048;SDS011;58704;53.358;-6.238;2024-03-22T04:28:37;27.70;;;4.43;;
71048;SDS011;58704;53.358;-6.238;2024-03-22T04:31:03;31.93;;;3.30;;
71048;SDS011;58704;53.358;-6.238;2024-03-22T04:33:30;32.60;;;4.55;;
71048;SDS011;58704;53.358;-6.238;2024-03-22T04:35:55;32.65;;;4.72;;
71048;SDS011;58704;53.358;-6.238;2024-03-22T04:38:24;32.30;;;4.55;;
71048;SDS011;58704;53.358;-6.238;2024-03-22T04:40:49;23.10;;;3.53;;
71048;SDS011;58704;53.358;-6.238;2024-03-22T04:43:15;33.23;;;3.90;;
71048;SDS011;58704;53.358;-6.238;2024-03-22T04:45:47;38.22;;;4.78;;
71048;SDS011;58704;53.358;-6.238;2024-03-22T04:48:13;25.85;;;3.78;;
71048;SDS011;58704;53.358;-6.238;2024-03-22T04:50:39;32.80;;;4.22;;
71048;SDS011;58704;53.358;-6.238;2024-03-22T04:53:04;31.43;;;4.30;;
71048;SDS011;58704;53.358;-6.238;2024-03-22T04:55:30;29.73;;;4.30;;
71048;SDS011;58704;53.358;-6.238;2024-03-22T04:57:55;26.53;;;4.30;;
71048;SDS011;58704;53.358;-6.238;2024-03-22T05:00:21;28.27;;;4.57;;
71048;SDS011;58704;53.358;-6.238;2024-03-22T05:02:46;32.93;;;4.00;;
71048;SDS011;58704;53.358;-6.238;2024-03-22T05:05:11;31.57;;;3.80;;
71048;SDS011;58704;53.358;-6.238;2024-03-22T05:07:37;31.20;;;4.03;;
71048;SDS011;58704;53.358;-6.238;2024-03-22T05:10:02;33.23;;;3.90;;
71048;SDS011;58704;53.358;-6.238;2024-03-22T05:12:28;28.42;;;4.07;;
71048;SDS011;58704;53.358;-6.238;2024-03-22T05:14:54;18.55;;;3.60;;
71048;SDS011;58704;53.358;-6.238;2024-03-22T05:17:19;31.50;;;3.77;;
71048;SDS011;58704;53.358;-6.238;2024-03-22T05:19:44;28.50;;;3.77;;
71048;SDS011;58704;53.358;-6.238;2024-03-22T05:22:10;30.10;;;3.97;;
71048;SDS011;58704;53.358;-6.238;2024-03-22T05:24:35;32.50;;;4.07;;
71048;SDS011;58704;53.358;-6.238;2024-03-22T05:27:00;24.17;;;3.83;;
71048;SDS011;58704;53.358;-6.238;2024-03-22T05:29:26;23.87;;;3.27;;
71048;SDS011;58704;53.358;-6.238;2024-03-22T05:31:51;29.23;;;4.07;;
71048;SDS011;58704;53.358;-6.238;2024-03-22T05:34:17;23.02;;;3.78;;
71048;SDS011;58704;53.358;-6.238;2024-03-22T05:36:42;25.53;;;3.00;;
71048;SDS011;58704;53.358;-6.238;2024-03-22T05:39:07;26.13;;;3.83;;
71048;SDS011;58704;53.358;-6.238;2024-03-22T05:41:33;24.13;;;3.33;;
71048;SDS011;58704;53.358;-6.238;2024-03-22T05:43:58;28.05;;;3.67;;
71048;SDS011;58704;53.358;-6.238;2024-03-22T05:46:23;19.87;;;3.13;;
71048;SDS011;58704;53.358;-6.238;2024-03-22T05:48:49;16.43;;;2.93;;
71048;SDS011;58704;53.358;-6.238;2024-03-22T05:51:15;36.10;;;4.15;;
71048;SDS011;58704;53.358;-6.238;2024-03-22T05:53:41;30.20;;;4.13;;
71048;SDS011;58704;53.358;-6.238;2024-03-22T05:56:07;33.40;;;3.72;;
71048;SDS011;58704;53.358;-6.238;2024-03-22T05:58:32;23.53;;;3.77;;
71048;SDS011;58704;53.358;-6.238;2024-03-22T06:00:57;25.87;;;4.23;;
71048;SDS011;58704;53.358;-6.238;2024-03-22T06:03:23;28.77;;;3.47;;
71048;SDS011;58704;53.358;-6.238;2024-03-22T06:05:48;25.87;;;2.93;;
71048;SDS011;58704;53.358;-6.238;2024-03-22T06:08:14;29.53;;;3.57;;
71048;SDS011;58704;53.358;-6.238;2024-03-22T06:10:44;31.08;;;3.05;;
71048;SDS011;58704;53.358;-6.238;2024-03-22T06:13:09;26.47;;;3.43;;
71048;SDS011;58704;53.358;-6.238;2024-03-22T06:15:34;26.27;;;4.67;;
71048;SDS011;58704;53.358;-6.238;2024-03-22T06:17:59;23.20;;;3.87;;
71048;SDS011;58704;53.358;-6.238;2024-03-22T06:20:24;25.90;;;3.83;;
71048;SDS011;58704;53.358;-6.238;2024-03-22T06:22:50;23.77;;;3.87;;
71048;SDS011;58704;53.358;-6.238;2024-03-22T06:25:15;27.37;;;3.10;;
71048;SDS011;58704;53.358;-6.238;2024-03-22T06:27:40;28.50;;;3.30;;
71048;SDS011;58704;53.358;-6.238;2024-03-22T06:30:06;29.20;;;3.43;;
71048;SDS011;58704;53.358;-6.238;2024-03-22T06:32:31;19.48;;;3.22;;
71048;SDS011;58704;53.358;-6.238;2024-03-22T06:34:56;26.93;;;3.57;;
71048;SDS011;58704;53.358;-6.238;2024-03-22T06:37:22;26.63;;;3.53;;
71048;SDS011;58704;53.358;-6.238;2024-03-22T06:39:47;23.53;;;3.23;;
71048;SDS011;58704;53.358;-6.238;2024-03-22T06:42:12;25.77;;;3.07;;
71048;SDS011;58704;53.358;-6.238;2024-03-22T06:44:37;30.63;;;3.47;;
71048;SDS011;58704;53.358;-6.238;2024-03-22T06:47:03;29.07;;;3.47;;
71048;SDS011;58704;53.358;-6.238;2024-03-22T06:49:28;25.38;;;4.15;;
71048;SDS011;58704;53.358;-6.238;2024-03-22T06:51:53;19.87;;;3.10;;
71048;SDS011;58704;53.358;-6.238;2024-03-22T06:54:19;20.67;;;3.10;;
71048;SDS011;58704;53.358;-6.238;2024-03-22T06:56:44;24.43;;;3.43;;
71048;SDS011;58704;53.358;-6.238;2024-03-22T06:59:09;19.07;;;3.40;;
71048;SDS011;58704;53.358;-6.238;2024-03-22T07:01:34;18.73;;;2.33;;
71048;SDS011;58704;53.358;-6.238;2024-03-22T07:03:59;22.10;;;3.03;;
71048;SDS011;58704;53.358;-6.238;2024-03-22T07:06:25;19.00;;;2.77;;
71048;SDS011;58704;53.358;-6.238;2024-03-22T07:08:50;23.47;;;3.27;;
71048;SDS011;58704;53.358;-6.238;2024-03-22T07:11:15;22.00;;;2.70;;
71048;SDS011;58704;53.358;-6.238;2024-03-22T07:13:41;20.17;;;3.03;;
71048;SDS011;58704;53.358;-6.238;2024-03-22T07:16:06;17.10;;;3.13;;
71048;SDS011;58704;53.358;-6.238;2024-03-22T07:18:31;27.30;;;2.53;;
71048;SDS011;58704;53.358;-6.238;2024-03-22T07:20:56;20.07;;;2.43;;
71048;SDS011;58704;53.358;-6.238;2024-03-22T07:23:26;16.75;;;2.50;;
71048;SDS011;58704;53.358;-6.238;2024-03-22T07:25:51;15.10;;;2.53;;
71048;SDS011;58704;53.358;-6.238;2024-03-22T07:28:16;16.20;;;2.80;;
71048;SDS011;58704;53.358;-6.238;2024-03-22T07:30:42;14.63;;;2.23;;
71048;SDS011;58704;53.358;-6.238;2024-03-22T07:33:07;14.27;;;2.15;;
71048;SDS011;58704;53.358;-6.238;2024-03-22T07:35:34;18.40;;;2.33;;
71048;SDS011;58704;53.358;-6.238;2024-03-22T07:37:59;13.90;;;2.60;;
71048;SDS011;58704;53.358;-6.238;2024-03-22T07:40:25;14.83;;;2.23;;
71048;SDS011;58704;53.358;-6.238;2024-03-22T07:42:50;10.10;;;2.10;;
71048;SDS011;58704;53.358;-6.238;2024-03-22T07:45:16;19.87;;;2.57;;
71048;SDS011;58704;53.358;-6.238;2024-03-22T07:47:41;14.30;;;2.17;;
71048;SDS011;58704;53.358;-6.238;2024-03-22T07:50:08;16.55;;;2.42;;
71048;SDS011;58704;53.358;-6.238;2024-03-22T07:52:34;18.03;;;3.47;;
71048;SDS011;58704;53.358;-6.238;2024-03-22T07:54:59;21.30;;;2.33;;
71048;SDS011;58704;53.358;-6.238;2024-03-22T07:57:27;18.40;;;2.65;;
71048;SDS011;58704;53.358;-6.238;2024-03-22T07:59:52;14.03;;;2.40;;
71048;SDS011;58704;53.358;-6.238;2024-03-22T08:02:17;15.30;;;2.70;;
71048;SDS011;58704;53.358;-6.238;2024-03-22T08:04:42;15.67;;;2.10;;
71048;SDS011;58704;53.358;-6.238;2024-03-22T08:07:07;15.00;;;2.30;;
71048;SDS011;58704;53.358;-6.238;2024-03-22T08:09:33;16.53;;;2.27;;
71048;SDS011;58704;53.358;-6.238;2024-03-22T08:11:58;18.23;;;2.53;;
71048;SDS011;58704;53.358;-6.238;2024-03-22T08:14:24;12.63;;;1.67;;
71048;SDS011;58704;53.358;-6.238;2024-03-22T08:16:49;15.53;;;3.03;;
71048;SDS011;58704;53.358;-6.238;2024-03-22T08:19:15;14.87;;;2.77;;
71048;SDS011;58704;53.358;-6.238;2024-03-22T08:21:40;19.37;;;2.80;;
71048;SDS011;58704;53.358;-6.238;2024-03-22T08:24:05;15.53;;;2.60;;
71048;SDS011;58704;53.358;-6.238;2024-03-22T08:26:30;15.97;;;2.47;;
71048;SDS011;58704;53.358;-6.238;2024-03-22T08:28:56;17.20;;;2.63;;
71048;SDS011;58704;53.358;-6.238;2024-03-22T08:31:21;15.20;;;2.23;;
71048;SDS011;58704;53.358;-6.238;2024-03-22T08:33:50;19.33;;;3.20;;
71048;SDS011;58704;53.358;-6.238;2024-03-22T08:36:15;18.87;;;2.30;;
71048;SDS011;58704;53.358;-6.238;2024-03-22T08:38:41;15.32;;;2.58;;
71048;SDS011;58704;53.358;-6.238;2024-03-22T08:41:06;15.93;;;2.53;;
71048;SDS011;58704;53.358;-6.238;2024-03-22T08:43:32;19.92;;;2.53;;
71048;SDS011;58704;53.358;-6.238;2024-03-22T08:45:57;14.17;;;2.07;;
71048;SDS011;58704;53.358;-6.238;2024-03-22T08:48:23;14.13;;;2.17;;
71048;SDS011;58704;53.358;-6.238;2024-03-22T08:50:48;11.90;;;2.23;;
71048;SDS011;58704;53.358;-6.238;2024-03-22T08:53:13;20.13;;;2.23;;
71048;SDS011;58704;53.358;-6.238;2024-03-22T08:55:44;11.77;;;2.20;;
71048;SDS011;58704;53.358;-6.238;2024-03-22T08:58:10;20.02;;;2.88;;
71048;SDS011;58704;53.358;-6.238;2024-03-22T09:00:35;10.17;;;2.03;;
71048;SDS011;58704;53.358;-6.238;2024-03-22T09:03:01;12.73;;;2.60;;
71048;SDS011;58704;53.358;-6.238;2024-03-22T09:05:26;18.73;;;2.77;;
71048;SDS011;58704;53.358;-6.238;2024-03-22T09:07:52;16.98;;;2.35;;
71048;SDS011;58704;53.358;-6.238;2024-03-22T09:10:19;23.77;;;2.78;;
71048;SDS011;58704;53.358;-6.238;2024-03-22T09:12:44;14.77;;;2.10;;
71048;SDS011;58704;53.358;-6.238;2024-03-22T09:15:09;13.50;;;2.50;;
71048;SDS011;58704;53.358;-6.238;2024-03-22T09:17:34;14.33;;;1.90;;
71048;SDS011;58704;53.358;-6.238;2024-03-22T09:20:00;18.67;;;3.30;;
71048;SDS011;58704;53.358;-6.238;2024-03-22T09:22:26;19.67;;;3.03;;
71048;SDS011;58704;53.358;-6.238;2024-03-22T09:24:51;16.43;;;2.93;;
71048;SDS011;58704;53.358;-6.238;2024-03-22T09:27:16;15.67;;;2.87;;
71048;SDS011;58704;53.358;-6.238;2024-03-22T09:29:41;17.87;;;2.77;;
71048;SDS011;58704;53.358;-6.238;2024-03-22T09:32:08;17.08;;;2.58;;
71048;SDS011;58704;53.358;-6.238;2024-03-22T09:34:34;23.37;;;2.93;;
71048;SDS011;58704;53.358;-6.238;2024-03-22T09:36:59;13.97;;;2.47;;
71048;SDS011;58704;53.358;-6.238;2024-03-22T09:39:24;18.97;;;2.60;;
71048;SDS011;58704;53.358;-6.238;2024-03-22T09:41:50;23.47;;;2.70;;
71048;SDS011;58704;53.358;-6.238;2024-03-22T09:44:15;17.88;;;2.30;;
71048;SDS011;58704;53.358;-6.238;2024-03-22T09:46:42;9.20;;;2.20;;
71048;SDS011;58704;53.358;-6.238;2024-03-22T09:49:11;12.23;;;2.30;;
71048;SDS011;58704;53.358;-6.238;2024-03-22T09:51:37;18.00;;;1.90;;
71048;SDS011;58704;53.358;-6.238;2024-03-22T09:54:02;14.32;;;2.58;;
71048;SDS011;58704;53.358;-6.238;2024-03-22T09:56:28;18.60;;;2.90;;
71048;SDS011;58704;53.358;-6.238;2024-03-22T09:58:55;15.13;;;2.70;;
71048;SDS011;58704;53.358;-6.238;2024-03-22T10:01:21;20.90;;;3.90;;
71048;SDS011;58704;53.358;-6.238;2024-03-22T10:03:46;19.23;;;2.40;;
71048;SDS011;58704;53.358;-6.238;2024-03-22T10:06:13;19.90;;;2.90;;
71048;SDS011;58704;53.358;-6.238;2024-03-22T10:08:39;17.10;;;2.57;;
71048;SDS011;58704;53.358;-6.238;2024-03-22T10:11:04;16.65;;;2.60;;
71048;SDS011;58704;53.358;-6.238;2024-03-22T10:13:30;16.03;;;2.47;;
71048;SDS011;58704;53.358;-6.238;2024-03-22T10:15:56;20.73;;;3.10;;
71048;SDS011;58704;53.358;-6.238;2024-03-22T10:18:21;12.77;;;2.90;;
71048;SDS011;58704;53.358;-6.238;2024-03-22T10:20:47;12.98;;;2.30;;
71048;SDS011;58704;53.358;-6.238;2024-03-22T10:23:12;15.90;;;2.70;;
71048;SDS011;58704;53.358;-6.238;2024-03-22T10:25:39;20.85;;;3.25;;
71048;SDS011;58704;53.358;-6.238;2024-03-22T10:28:04;13.87;;;2.50;;
71048;SDS011;58704;53.358;-6.238;2024-03-22T10:30:30;17.37;;;3.00;;
71048;SDS011;58704;53.358;-6.238;2024-03-22T10:32:56;15.87;;;2.40;;
71048;SDS011;58704;53.358;-6.238;2024-03-22T10:35:21;14.05;;;2.50;;
71048;SDS011;58704;53.358;-6.238;2024-03-22T10:37:46;18.00;;;2.97;;
71048;SDS011;58704;53.358;-6.238;2024-03-22T10:40:12;10.30;;;2.60;;
71048;SDS011;58704;53.358;-6.238;2024-03-22T10:42:39;10.63;;;2.38;;
71048;SDS011;58704;53.358;-6.238;2024-03-22T10:45:05;12.07;;;2.38;;
71048;SDS011;58704;53.358;-6.238;2024-03-22T10:47:31;8.93;;;2.30;;
71048;SDS011;58704;53.358;-6.238;2024-03-22T10:50:07;14.60;;;2.83;;
71048;SDS011;58704;53.358;-6.238;2024-03-22T10:52:37;12.35;;;2.28;;
71048;SDS011;58704;53.358;-6.238;2024-03-22T10:55:04;13.73;;;2.40;;
71048;SDS011;58704;53.358;-6.238;2024-03-22T10:57:30;14.65;;;2.33;;
71048;SDS011;58704;53.358;-6.238;2024-03-22T10:59:55;11.43;;;2.67;;
71048;SDS011;58704;53.358;-6.238;2024-03-22T11:02:23;13.87;;;2.97;;
71048;SDS011;58704;53.358;-6.238;2024-03-22T11:04:57;9.40;;;2.45;;
71048;SDS011;58704;53.358;-6.238;2024-03-22T11:07:23;14.50;;;2.67;;
71048;SDS011;58704;53.358;-6.238;2024-03-22T11:09:53;11.52;;;2.40;;
71048;SDS011;58704;53.358;-6.238;2024-03-22T11:12:20;7.68;;;2.00;;
71048;SDS011;58704;53.358;-6.238;2024-03-22T11:14:46;11.53;;;2.00;;
71048;SDS011;58704;53.358;-6.238;2024-03-22T11:17:12;13.40;;;2.70;;
71048;SDS011;58704;53.358;-6.238;2024-03-22T11:19:37;8.30;;;2.70;;
71048;SDS011;58704;53.358;-6.238;2024-03-22T11:22:05;12.65;;;2.63;;
71048;SDS011;58704;53.358;-6.238;2024-03-22T11:24:31;12.00;;;2.28;;
71048;SDS011;58704;53.358;-6.238;2024-03-22T11:26:56;7.53;;;1.73;;
71048;SDS011;58704;53.358;-6.238;2024-03-22T11:29:22;37.47;;;3.47;;
71048;SDS011;58704;53.358;-6.238;2024-03-22T11:31:47;17.70;;;2.60;;
71048;SDS011;58704;53.358;-6.238;2024-03-22T11:34:13;17.13;;;2.80;;
71048;SDS011;58704;53.358;-6.238;2024-03-22T11:36:38;8.93;;;2.38;;
71048;SDS011;58704;53.358;-6.238;2024-03-22T11:39:04;11.83;;;2.60;;
71048;SDS011;58704;53.358;-6.238;2024-03-22T11:41:29;10.87;;;2.23;;
71048;SDS011;58704;53.358;-6.238;2024-03-22T11:43:56;10.73;;;2.30;;
71048;SDS011;58704;53.358;-6.238;2024-03-22T11:46:23;14.48;;;2.78;;
71048;SDS011;58704;53.358;-6.238;2024-03-22T11:48:51;12.23;;;2.50;;
71048;SDS011;58704;53.358;-6.238;2024-03-22T11:51:17;13.40;;;2.38;;
71048;SDS011;58704;53.358;-6.238;2024-03-22T11:53:48;10.50;;;2.50;;
71048;SDS011;58704;53.358;-6.238;2024-03-22T11:56:14;13.93;;;2.13;;
71048;SDS011;58704;53.358;-6.238;2024-03-22T11:58:42;11.23;;;2.70;;
71048;SDS011;58704;53.358;-6.238;2024-03-22T12:01:07;18.37;;;2.80;;
71048;SDS011;58704;53.358;-6.238;2024-03-22T12:03:32;12.67;;;2.50;;
71048;SDS011;58704;53.358;-6.238;2024-03-22T12:05:57;14.57;;;2.40;;
71048;SDS011;58704;53.358;-6.238;2024-03-22T12:08:23;16.63;;;2.30;;
71048;SDS011;58704;53.358;-6.238;2024-03-22T12:10:48;11.67;;;2.23;;
71048;SDS011;58704;53.358;-6.238;2024-03-22T12:13:13;11.50;;;1.77;;
71048;SDS011;58704;53.358;-6.238;2024-03-22T12:15:38;10.13;;;2.00;;
71048;SDS011;58704;53.358;-6.238;2024-03-22T12:18:04;12.97;;;2.00;;
71048;SDS011;58704;53.358;-6.238;2024-03-22T12:20:29;15.20;;;2.10;;
71048;SDS011;58704;53.358;-6.238;2024-03-22T12:22:54;6.07;;;1.70;;
71048;SDS011;58704;53.358;-6.238;2024-03-22T12:25:20;13.00;;;1.93;;
71048;SDS011;58704;53.358;-6.238;2024-03-22T12:27:46;8.60;;;2.20;;
71048;SDS011;58704;53.358;-6.238;2024-03-22T12:30:11;5.05;;;1.77;;
71048;SDS011;58704;53.358;-6.238;2024-03-22T12:32:36;6.00;;;2.00;;
71048;SDS011;58704;53.358;-6.238;2024-03-22T12:35:02;8.63;;;1.73;;
71048;SDS011;58704;53.358;-6.238;2024-03-22T12:37:27;9.87;;;1.60;;
71048;SDS011;58704;53.358;-6.238;2024-03-22T12:39:52;4.10;;;1.40;;
71048;SDS011;58704;53.358;-6.238;2024-03-22T12:42:18;7.40;;;1.63;;
71048;SDS011;58704;53.358;-6.238;2024-03-22T12:44:43;7.65;;;1.83;;
71048;SDS011;58704;53.358;-6.238;2024-03-22T12:47:09;4.90;;;1.73;;
71048;SDS011;58704;53.358;-6.238;2024-03-22T12:49:34;7.97;;;1.90;;
71048;SDS011;58704;53.358;-6.238;2024-03-22T12:52:00;8.43;;;2.00;;
71048;SDS011;58704;53.358;-6.238;2024-03-22T12:54:25;11.97;;;1.50;;
71048;SDS011;58704;53.358;-6.238;2024-03-22T12:56:51;8.20;;;1.90;;
71048;SDS011;58704;53.358;-6.238;2024-03-22T12:59:16;9.53;;;1.90;;
71048;SDS011;58704;53.358;-6.238;2024-03-22T13:01:42;7.87;;;1.77;;
71048;SDS011;58704;53.358;-6.238;2024-03-22T13:04:07;6.73;;;1.77;;
71048;SDS011;58704;53.358;-6.238;2024-03-22T13:06:33;5.33;;;1.40;;
71048;SDS011;58704;53.358;-6.238;2024-03-22T13:08:59;8.55;;;1.67;;
71048;SDS011;58704;53.358;-6.238;2024-03-22T13:11:24;5.43;;;1.40;;
71048;SDS011;58704;53.358;-6.238;2024-03-22T13:13:50;8.53;;;1.83;;
71048;SDS011;58704;53.358;-6.238;2024-03-22T13:16:15;6.27;;;1.50;;
71048;SDS011;58704;53.358;-6.238;2024-03-22T13:18:44;7.10;;;1.40;;
71048;SDS011;58704;53.358;-6.238;2024-03-22T13:21:09;5.35;;;1.70;;
71048;SDS011;58704;53.358;-6.238;2024-03-22T13:23:34;9.13;;;1.83;;
71048;SDS011;58704;53.358;-6.238;2024-03-22T13:26:03;8.10;;;1.80;;
71048;SDS011;58704;53.358;-6.238;2024-03-22T13:28:29;5.00;;;1.70;;
71048;SDS011;58704;53.358;-6.238;2024-03-22T13:31:01;5.30;;;1.93;;
71048;SDS011;58704;53.358;-6.238;2024-03-22T13:33:27;8.33;;;1.40;;
71048;SDS011;58704;53.358;-6.238;2024-03-22T13:35:52;6.37;;;2.10;;
71048;SDS011;58704;53.358;-6.238;2024-03-22T13:38:18;6.97;;;1.70;;
71048;SDS011;58704;53.358;-6.238;2024-03-22T13:40:43;14.07;;;2.53;;
71048;SDS011;58704;53.358;-6.238;2024-03-22T13:43:09;9.10;;;1.05;;
71048;SDS011;58704;53.358;-6.238;2024-03-22T13:45:41;8.33;;;1.40;;
71048;SDS011;58704;53.358;-6.238;2024-03-22T13:48:10;7.85;;;1.20;;
71048;SDS011;58704;53.358;-6.238;2024-03-22T13:50:35;6.82;;;1.73;;
71048;SDS011;58704;53.358;-6.238;2024-03-22T13:53:00;2.87;;;1.30;;
71048;SDS011;58704;53.358;-6.238;2024-03-22T13:55:26;4.20;;;1.13;;
71048;SDS011;58704;53.358;-6.238;2024-03-22T13:57:51;4.60;;;1.20;;
71048;SDS011;58704;53.358;-6.238;2024-03-22T14:00:16;6.77;;;1.33;;
71048;SDS011;58704;53.358;-6.238;2024-03-22T14:02:42;11.07;;;1.73;;
71048;SDS011;58704;53.358;-6.238;2024-03-22T14:05:09;4.30;;;1.33;;
71048;SDS011;58704;53.358;-6.238;2024-03-22T14:07:34;3.70;;;1.13;;
71048;SDS011;58704;53.358;-6.238;2024-03-22T14:10:00;5.43;;;1.05;;
71048;SDS011;58704;53.358;-6.238;2024-03-22T14:12:25;4.90;;;1.13;;
71048;SDS011;58704;53.358;-6.238;2024-03-22T14:14:51;3.17;;;1.65;;